CDT,Max TemperatureF,Mean TemperatureF,Min TemperatureF,Max Dew PointF,MeanDew PointF,Min DewpointF,Max Humidity, Mean Humidity, Min Humidity, Max Sea Level PressureIn, Mean Sea Level PressureIn, Min Sea Level PressureIn, Max VisibilityMiles, Mean VisibilityMiles, Min VisibilityMiles, Max Wind SpeedMPH, Mean Wind SpeedMPH, Max Gust SpeedMPH,PrecipitationIn, CloudCover, Events, WindDirDegrees
2014-3-1,17,10,2,14,1,-9,84,67,56,30.46,30.30,30.07,10,7,0,16,10,21,0.00,8,Snow,323
2014-3-2,4,-2,-7,-9,-18,-22,59,44,32,30.54,30.49,30.44,10,10,10,15,9,18,0.00,2,,315
2014-3-3,14,0,-14,6,-12,-21,84,55,37,30.55,30.46,30.30,10,10,1,10,2,,0.00,4,Snow,187
2014-3-4,23,16,9,16,6,2,88,62,43,30.29,30.21,30.15,10,8,1,9,2,,0.08,7,Snow,99
2014-3-5,25,18,12,16,10,4,89,69,54,30.45,30.39,30.27,10,7,1,17,6,23,0.01,4,Snow,88
2014-3-6,28,16,3,15,9,-1,85,70,55,30.43,30.22,29.97,10,10,10,10,4,,0.00,2,,120
2014-3-7,40,30,21,30,24,14,82,72,60,30.06,29.91,29.84,10,7,4,13,8,17,0.04,5,,328
2014-3-8,34,26,19,27,19,14,79,65,47,30.28,30.21,30.06,10,10,7,13,7,,0.00,4,,316
2014-3-9,44,29,14,32,22,11,86,69,52,30.26,29.98,29.71,10,10,10,15,4,21,0.00,0,,200
2014-3-10,54,42,32,34,32,29,87,68,47,29.72,29.68,29.64,10,10,10,12,2,,0.00,1,,275
2014-3-11,43,38,33,35,32,26,92,83,64,29.85,29.76,29.66,10,10,10,13,2,18,0.03,7,Rain,337
2014-3-12,36,29,20,25,16,11,75,58,48,30.12,30.00,29.84,10,10,10,20,11,25,0.00,3,,312
2014-3-13,48,30,14,34,23,11,86,71,56,30.11,29.92,29.68,10,10,10,15,3,20,0.00,2,,153
2014-3-14,47,41,34,33,30,25,75,65,45,29.91,29.68,29.54,10,10,10,23,11,36,0.00,2,,258
2014-3-15,35,30,25,25,20,14,81,62,49,30.30,30.11,29.91,10,10,10,12,6,,0.00,5,,345
2014-3-16,30,23,16,16,8,0,74,52,37,30.44,30.32,30.14,10,10,10,16,9,22,0.00,2,Snow,61
2014-3-17,39,28,18,22,14,10,71,58,37,30.14,29.85,29.65,10,10,10,16,7,22,0.00,4,,131
2014-3-18,46,38,30,35,28,22,88,69,58,29.75,29.69,29.61,10,9,3,16,8,26,0.12,3,Rain,100
2014-3-19,37,34,30,34,29,23,96,81,64,30.01,29.81,29.61,10,7,2,20,8,26,0.11,7,Rain-Snow,295
2014-3-20,45,34,23,31,25,20,96,74,38,30.07,30.01,29.97,10,7,0,7,1,,0.02,3,Fog-Snow,228
2014-3-21,54,38,25,36,29,23,92,71,49,29.99,29.86,29.73,10,10,10,26,7,33,0.00,3,,199
2014-3-22,35,28,21,27,15,7,74,59,40,30.45,30.25,30.00,10,10,10,18,13,26,0.00,3,,308
2014-3-23,27,21,15,11,5,2,73,52,36,30.51,30.45,30.39,10,10,10,14,9,18,0.00,0,,311
2014-3-24,36,27,18,26,17,11,85,66,46,30.39,30.25,30.09,10,10,1,21,4,31,0.00,6,Snow,242
2014-3-25,25,21,17,15,7,0,78,53,41,30.26,30.19,30.08,10,10,2,22,11,28,0.00,3,Snow,290
2014-3-26,43,27,12,18,12,8,83,53,31,30.25,30.07,29.79,10,10,10,20,5,32,0.00,4,,140
2014-3-27,43,40,37,42,35,18,97,85,36,29.77,29.55,29.34,10,6,1,17,9,28,0.83,8,Rain,125
2014-3-28,41,36,32,36,29,25,97,76,56,30.17,29.97,29.49,10,10,7,17,9,25,0.00,6,,314
2014-3-29,47,39,31,31,28,26,91,70,46,30.27,30.22,30.18,10,10,7,8,1,,0.00,5,,116
2014-3-30,62,46,30,35,31,28,87,58,33,30.22,30.03,29.89,10,10,7,16,5,23,0.00,0,,132
2014-3-31,66,52,37,46,37,28,71,54,36,29.91,29.71,29.50,10,10,10,21,9,32,0.01,2,Rain,135